Kliftrans — PCDB — position and weather

sailwx.info

Track history (hours):
 
Tides and Currents Weather Stations Pressure Air Temp Water Temp Dewpoint Dewpoint Depression Visibility Wind Speed Wind Dir Waves Ship Positions

Kliftrans

Last reported at 2014-Oct-30 14:16 UTC. Time now 2014-Oct-31 08:28 UTC.
Position N 55°36' E 015°21'.

Length 88 m; draft 4.4 m.

Type: Cargo ship. MMSI: 245132000.

Date/timePositionNaut miles runAvg speedWind from/ knotsBaromVisibWave heightAir tempDewpointWater temp
2014-Oct-30 14:16N 55°36' E 015°21'810.0
2014-Oct-30 13:29N 55°32' E 015°09'1010.0
2014-Oct-30 12:30N 55°27' E 014°54'1010.1
2014-Oct-30 11:32N 55°22' E 014°39'9210.1
2014-Oct-30 02:27N 54°34' E 012°24'9 9.9
2014-Oct-30 01:33N 54°27' E 012°14'10 9.8
2014-Oct-30 00:32N 54°24' E 011°58'3610.5
2014-Oct-29 21:06N 54°34' E 010°58'610.5
2014-Oct-29 20:32N 54°34' E 010°47'11 9.9
2014-Oct-29 19:28N 54°32' E 010°30'9 9.5
2014-Oct-29 18:33N 54°28' E 010°16'7 7.4
2014-Oct-29 17:33N 54°22' E 010°09'0 0.4
2014-Oct-29 16:32N 54°22' E 010°08'1 0.7
2014-Oct-29 15:21N 54°22' E 010°07'6 7.3
2014-Oct-29 14:32N 54°20' E 009°57'16 7.1
2014-Oct-29 12:18N 54°12' E 009°34'7 8.2
2014-Oct-29 11:26N 54°09' E 009°23'2 2.5
2014-Oct-29 10:32N 54°08' E 009°20'8 8.2
2014-Oct-29 09:33N 53°60' E 009°17'6 5.9
2014-Oct-29 08:33N 53°55' E 009°11'2 2.3
2014-Oct-29 07:33N 53°54' E 009°09'7 6.6
2014-Oct-29 06:33N 53°51' E 008°58'8 8.1
2014-Oct-29 05:33N 53°51' E 008°45'9 8.6
2014-Oct-29 04:33N 53°58' E 008°35'10 9.5
2014-Oct-29 03:34N 53°60' E 008°19'1110.1
2014-Oct-29 02:31N 53°58' E 008°01'1010.5
2014-Oct-29 01:31N 53°55' E 007°44'1110.8
2014-Oct-29 00:32N 53°53' E 007°26'11 8.5
2014-Oct-28 23:13N 53°50' E 007°08'36 7.6
2014-Oct-28 18:33N 53°42' E 006°09'7 7.5
2014-Oct-28 17:33N 53°40' E 005°57'7 7.3
2014-Oct-28 16:33N 53°38' E 005°45'7 7.2
2014-Oct-28 15:33N 53°36' E 005°34'6 6.0
2014-Oct-28 14:33N 53°33' E 005°25'6 6.1
2014-Oct-28 13:34N 53°31' E 005°15'7 6.6
2014-Oct-28 12:34N 53°29' E 005°05'7 6.9
2014-Oct-28 11:33N 53°26' E 004°54'8 7.5
2014-Oct-28 10:33N 53°22' E 004°43'8 8.2
2014-Oct-28 09:31N 53°15' E 004°36'8 8.3
2014-Oct-28 08:32N 53°08' E 004°30'9 8.3
2014-Oct-28 07:26N 52°60' E 004°23'8 9.3
2014-Oct-28 06:33N 52°53' E 004°16'9 9.6
2014-Oct-28 05:33N 52°45' E 004°07'1010.0
2014-Oct-28 04:33N 52°38' E 003°55'1110.2
2014-Oct-28 03:31N 52°30' E 003°43'10 9.8
2014-Oct-28 02:33N 52°23' E 003°32'9 9.0
2014-Oct-28 01:33N 52°17' E 003°22'8 8.3
2014-Oct-28 00:33N 52°11' E 003°12'8 7.7
2014-Oct-27 23:33N 52°05' E 003°04'7 7.2
2014-Oct-27 22:33N 51°60' E 002°56'7 7.3
2014-Oct-27 21:32N 51°54' E 002°49'8 8.0
2014-Oct-27 20:34N 51°48' E 002°41'8 8.2
2014-Oct-27 19:32N 51°42' E 002°33'9 8.9
2014-Oct-27 18:33N 51°35' E 002°24'9 9.2
2014-Oct-27 17:31N 51°27' E 002°15'9 9.7
2014-Oct-27 16:33N 51°19' E 002°07'1211.7
2014-Oct-27 15:33N 51°11' E 001°54'1312.9
2014-Oct-27 14:33N 51°02' E 001°39'1813.3
2014-Oct-27 13:14N 50°47' E 001°23'812.0
2014-Oct-27 12:33N 50°41' E 001°15'1211.6
2014-Oct-27 11:33N 50°33' E 001°01'110 9.7
2014-Oct-27 00:13N 50°01' W 001°42'811.8
2014-Oct-26 23:33N 49°59' W 001°54'1312.7
2014-Oct-26 22:33N 49°56' W 002°13'  
2014-Oct-23 14:31N 38°19' W 010°55'1010.3
2014-Oct-23 13:32N 38°09' W 010°57'1010.4
2014-Oct-23 12:33N 37°59' W 010°60'2110.3
2014-Oct-23 10:32N 37°38' W 011°04'1010.0
2014-Oct-23 09:33N 37°29' W 011°06'10 9.9
2014-Oct-23 08:33N 37°19' W 011°09'1010.1
2014-Oct-23 07:33N 37°09' W 011°11'1110.7
2014-Oct-23 06:33N 36°59' W 011°14'1410.1
2014-Oct-23 05:12N 36°45' W 011°17'710.2
2014-Oct-23 04:33N 36°39' W 011°19'1110.5
2014-Oct-23 03:32N 36°29' W 011°22'1010.3
2014-Oct-23 02:33N 36°19' W 011°24'10810.4
2014-Oct-22 16:13N 34°32' W 011°49'710.8
2014-Oct-22 15:33N 34°25' W 011°51'  
Track history (hours):
 
Tides and Currents Weather Stations Pressure Air Temp Water Temp Dewpoint Dewpoint Depression Visibility Wind Speed Wind Dir Waves Ship Positions

Kliftrans

Last reported at 2014-Oct-30 14:16 UTC. Time now 2014-Oct-31 08:28 UTC.
Position N 55°36' E 015°21'.

Length 88 m; draft 4.4 m.

Type: Cargo ship. MMSI: 245132000.

Date/timePositionNaut miles runAvg speedWind from/ knotsBaromVisibWave heightAir tempDewpointWater temp
2014-Oct-30 14:16N 55°36' E 015°21'810.0
2014-Oct-30 13:29N 55°32' E 015°09'1010.0
2014-Oct-30 12:30N 55°27' E 014°54'1010.1
2014-Oct-30 11:32N 55°22' E 014°39'9210.1
2014-Oct-30 02:27N 54°34' E 012°24'9 9.9
2014-Oct-30 01:33N 54°27' E 012°14'10 9.8
2014-Oct-30 00:32N 54°24' E 011°58'3610.5
2014-Oct-29 21:06N 54°34' E 010°58'610.5
2014-Oct-29 20:32N 54°34' E 010°47'11 9.9
2014-Oct-29 19:28N 54°32' E 010°30'9 9.5
2014-Oct-29 18:33N 54°28' E 010°16'7 7.4
2014-Oct-29 17:33N 54°22' E 010°09'0 0.4
2014-Oct-29 16:32N 54°22' E 010°08'1 0.7
2014-Oct-29 15:21N 54°22' E 010°07'6 7.3
2014-Oct-29 14:32N 54°20' E 009°57'16 7.1
2014-Oct-29 12:18N 54°12' E 009°34'7 8.2
2014-Oct-29 11:26N 54°09' E 009°23'2 2.5
2014-Oct-29 10:32N 54°08' E 009°20'8 8.2
2014-Oct-29 09:33N 53°60' E 009°17'6 5.9
2014-Oct-29 08:33N 53°55' E 009°11'2 2.3
2014-Oct-29 07:33N 53°54' E 009°09'7 6.6
2014-Oct-29 06:33N 53°51' E 008°58'8 8.1
2014-Oct-29 05:33N 53°51' E 008°45'9 8.6
2014-Oct-29 04:33N 53°58' E 008°35'10 9.5
2014-Oct-29 03:34N 53°60' E 008°19'1110.1
2014-Oct-29 02:31N 53°58' E 008°01'1010.5
2014-Oct-29 01:31N 53°55' E 007°44'1110.8
2014-Oct-29 00:32N 53°53' E 007°26'11 8.5
2014-Oct-28 23:13N 53°50' E 007°08'36 7.6
2014-Oct-28 18:33N 53°42' E 006°09'7 7.5
2014-Oct-28 17:33N 53°40' E 005°57'7 7.3
2014-Oct-28 16:33N 53°38' E 005°45'7 7.2
2014-Oct-28 15:33N 53°36' E 005°34'6 6.0
2014-Oct-28 14:33N 53°33' E 005°25'6 6.1
2014-Oct-28 13:34N 53°31' E 005°15'7 6.6
2014-Oct-28 12:34N 53°29' E 005°05'7 6.9
2014-Oct-28 11:33N 53°26' E 004°54'8 7.5
2014-Oct-28 10:33N 53°22' E 004°43'8 8.2
2014-Oct-28 09:31N 53°15' E 004°36'8 8.3
2014-Oct-28 08:32N 53°08' E 004°30'9 8.3
2014-Oct-28 07:26N 52°60' E 004°23'8 9.3
2014-Oct-28 06:33N 52°53' E 004°16'9 9.6
2014-Oct-28 05:33N 52°45' E 004°07'1010.0
2014-Oct-28 04:33N 52°38' E 003°55'1110.2
2014-Oct-28 03:31N 52°30' E 003°43'10 9.8
2014-Oct-28 02:33N 52°23' E 003°32'9 9.0
2014-Oct-28 01:33N 52°17' E 003°22'8 8.3
2014-Oct-28 00:33N 52°11' E 003°12'8 7.7
2014-Oct-27 23:33N 52°05' E 003°04'7 7.2
2014-Oct-27 22:33N 51°60' E 002°56'7 7.3
2014-Oct-27 21:32N 51°54' E 002°49'8 8.0
2014-Oct-27 20:34N 51°48' E 002°41'8 8.2
2014-Oct-27 19:32N 51°42' E 002°33'9 8.9
2014-Oct-27 18:33N 51°35' E 002°24'9 9.2
2014-Oct-27 17:31N 51°27' E 002°15'9 9.7
2014-Oct-27 16:33N 51°19' E 002°07'1211.7
2014-Oct-27 15:33N 51°11' E 001°54'1312.9
2014-Oct-27 14:33N 51°02' E 001°39'1813.3
2014-Oct-27 13:14N 50°47' E 001°23'812.0
2014-Oct-27 12:33N 50°41' E 001°15'1211.6
2014-Oct-27 11:33N 50°33' E 001°01'110 9.7
2014-Oct-27 00:13N 50°01' W 001°42'811.8
2014-Oct-26 23:33N 49°59' W 001°54'1312.7
2014-Oct-26 22:33N 49°56' W 002°13'  
2014-Oct-23 14:31N 38°19' W 010°55'1010.3
2014-Oct-23 13:32N 38°09' W 010°57'1010.4
2014-Oct-23 12:33N 37°59' W 010°60'2110.3
2014-Oct-23 10:32N 37°38' W 011°04'1010.0
2014-Oct-23 09:33N 37°29' W 011°06'10 9.9
2014-Oct-23 08:33N 37°19' W 011°09'1010.1
2014-Oct-23 07:33N 37°09' W 011°11'1110.7
2014-Oct-23 06:33N 36°59' W 011°14'1410.1
2014-Oct-23 05:12N 36°45' W 011°17'710.2
2014-Oct-23 04:33N 36°39' W 011°19'1110.5
2014-Oct-23 03:32N 36°29' W 011°22'1010.3
2014-Oct-23 02:33N 36°19' W 011°24'10810.4
2014-Oct-22 16:13N 34°32' W 011°49'710.8
2014-Oct-22 15:33N 34°25' W 011°51'  

Dump ship's entire track history